createdAt,value
2018-03-03T00:01:46.658Z,19.77
2018-03-03T00:04:14.115Z,19.90
2018-03-03T00:06:41.541Z,22.43
2018-03-03T00:09:09.726Z,15.43
2018-03-03T00:11:37.921Z,22.83
2018-03-03T00:14:06.124Z,17.33
2018-03-03T00:16:33.703Z,17.05
2018-03-03T00:19:01.135Z,21.33
2018-03-03T00:21:29.339Z,18.53
2018-03-03T00:23:57.513Z,14.20
2018-03-03T00:26:25.709Z,20.97
2018-03-03T00:28:53.894Z,22.00
2018-03-03T00:31:22.094Z,22.13
2018-03-03T00:33:49.566Z,11.27
2018-03-03T00:36:17.773Z,20.73
2018-03-03T00:38:45.242Z,17.87
2018-03-03T00:41:12.684Z,11.87
2018-03-03T00:43:40.110Z,16.27
2018-03-03T00:46:07.546Z,18.07
2018-03-03T00:48:34.969Z,20.27
2018-03-03T00:51:04.099Z,14.20
2018-03-03T00:53:31.588Z,15.40
2018-03-03T00:55:59.021Z,17.50
2018-03-03T00:58:27.210Z,10.60
2018-03-03T01:00:54.645Z,16.80
2018-03-03T01:03:22.079Z,11.27
2018-03-03T01:05:49.541Z,18.37
2018-03-03T01:08:16.990Z,10.93
2018-03-03T01:10:44.427Z,17.37
2018-03-03T01:13:11.843Z,15.03
2018-03-03T01:15:39.294Z,13.17
2018-03-03T01:18:06.722Z,14.37
2018-03-03T01:20:35.479Z,14.90
2018-03-03T01:23:02.901Z,16.73
2018-03-03T01:25:30.327Z,16.80
2018-03-03T01:27:57.750Z,17.42
2018-03-03T01:30:25.946Z,15.63
2018-03-03T01:32:53.378Z,14.70
2018-03-03T01:35:20.805Z,15.17
2018-03-03T01:37:48.232Z,20.87
2018-03-03T01:40:16.438Z,15.73
2018-03-03T01:42:43.862Z,18.83
2018-03-03T01:45:12.802Z,13.30
2018-03-03T01:47:40.980Z,19.40
2018-03-03T01:50:09.171Z,11.73
2018-03-03T01:52:37.363Z,11.90
2018-03-03T01:55:05.995Z,16.62
2018-03-03T01:57:33.611Z,13.63
2018-03-03T02:00:01.032Z,17.87
2018-03-03T02:02:28.475Z,16.10
2018-03-03T02:04:56.647Z,9.53
2018-03-03T02:07:24.833Z,17.17
2018-03-03T02:09:53.047Z,17.50
2018-03-03T02:12:20.543Z,17.10
2018-03-03T02:14:47.994Z,7.07
2018-03-03T02:17:15.405Z,16.45
2018-03-03T02:19:42.821Z,16.03
2018-03-03T02:22:10.265Z,16.57
2018-03-03T02:24:38.493Z,15.30
2018-03-03T02:27:05.941Z,16.23
2018-03-03T02:29:33.366Z,24.37
2018-03-03T02:32:00.827Z,12.30
2018-03-03T02:34:28.242Z,17.67
2018-03-03T02:36:55.722Z,15.07
2018-03-03T02:39:23.162Z,22.60
2018-03-03T02:41:50.598Z,22.10
2018-03-03T02:44:18.022Z,13.23
2018-03-03T02:46:45.553Z,14.23
2018-03-03T02:49:13.169Z,20.00
2018-03-03T02:51:40.589Z,17.20
2018-03-03T02:54:08.010Z,17.05
2018-03-03T02:56:36.814Z,16.35
2018-03-03T02:59:04.239Z,11.23
2018-03-03T03:01:32.427Z,20.30
2018-03-03T03:04:00.628Z,22.00
2018-03-03T03:06:28.143Z,18.15
2018-03-03T03:08:55.689Z,21.63
2018-03-03T03:11:23.124Z,22.83
2018-03-03T03:13:51.346Z,12.83
2018-03-03T03:16:18.794Z,20.97
2018-03-03T03:18:46.236Z,16.15
2018-03-03T03:21:14.465Z,14.63
2018-03-03T03:23:41.894Z,11.75
2018-03-03T03:26:10.105Z,19.45
2018-03-03T03:28:37.549Z,13.77
2018-03-03T03:31:04.978Z,21.60
2018-03-03T03:33:32.410Z,18.02
2018-03-03T03:35:59.896Z,18.17
2018-03-03T03:38:27.326Z,16.80
2018-03-03T03:40:54.734Z,16.40
2018-03-03T03:43:22.164Z,19.47
2018-03-03T03:45:50.385Z,9.85
2018-03-03T03:48:17.822Z,17.20
2018-03-03T03:50:46.017Z,12.30
2018-03-03T03:53:14.230Z,17.23
2018-03-03T03:55:41.655Z,17.80
2018-03-03T03:58:09.083Z,9.77
2018-03-03T04:00:37.667Z,17.65
2018-03-03T04:03:05.094Z,15.60
2018-03-03T04:05:33.297Z,16.70
2018-03-03T04:08:00.774Z,12.53
2018-03-03T04:10:28.208Z,14.33
2018-03-03T04:12:55.615Z,15.10
2018-03-03T04:15:23.051Z,16.98
2018-03-03T04:17:51.248Z,17.03
2018-03-03T04:20:19.475Z,21.07
2018-03-03T04:22:46.906Z,18.97
2018-03-03T04:25:14.362Z,21.20
2018-03-03T04:27:42.567Z,14.00
2018-03-03T04:30:10.758Z,11.43
2018-03-03T04:32:38.215Z,17.33
2018-03-03T04:35:05.661Z,18.07
2018-03-03T04:37:33.058Z,13.60
2018-03-03T04:40:01.241Z,16.37
2018-03-03T04:42:29.426Z,22.00
2018-03-03T04:44:57.638Z,14.13
2018-03-03T04:47:25.088Z,19.52
2018-03-03T04:49:53.299Z,15.52
2018-03-03T04:52:20.725Z,12.67
2018-03-03T04:54:48.142Z,17.40
2018-03-03T04:57:15.579Z,16.17
2018-03-03T04:59:43.765Z,13.87
2018-03-03T05:02:15.830Z,13.63
2018-03-03T05:04:53.913Z,18.53
2018-03-03T05:10:31.206Z,16.87
2018-03-03T05:13:13.516Z,19.60
2018-03-03T05:18:45.791Z,18.45
2018-03-03T05:21:18.854Z,18.98
2018-03-03T05:23:52.068Z,24.73
2018-03-03T05:26:25.252Z,24.67
2018-03-03T05:28:58.426Z,15.10
2018-03-03T05:31:28.593Z,13.83
2018-03-03T05:34:01.784Z,22.50
2018-03-03T05:39:40.658Z,16.60
2018-03-03T05:42:21.734Z,23.45
2018-03-03T05:47:56.743Z,14.38
2018-03-03T05:53:32.590Z,16.08
2018-03-03T05:56:15.694Z,17.63
2018-03-03T06:01:48.282Z,18.80
2018-03-03T06:07:28.969Z,13.57
2018-03-03T06:09:56.390Z,19.27
2018-03-03T06:12:23.846Z,16.93
2018-03-03T06:14:51.294Z,17.10
2018-03-03T06:17:19.477Z,18.33
2018-03-03T06:19:47.812Z,18.30
2018-03-03T06:22:15.250Z,15.27
2018-03-03T06:24:42.690Z,21.48
2018-03-03T06:27:10.934Z,11.07
2018-03-03T06:29:38.830Z,20.73
2018-03-03T06:32:06.254Z,16.63
2018-03-03T06:34:33.728Z,15.17
2018-03-03T06:37:01.169Z,18.27
2018-03-03T06:39:28.664Z,17.27
2018-03-03T06:41:56.126Z,22.53
2018-03-03T06:44:24.289Z,10.73
2018-03-03T06:46:51.718Z,19.33
2018-03-03T06:49:19.178Z,27.27
2018-03-03T06:51:46.643Z,19.10
2018-03-03T06:54:14.201Z,15.43
2018-03-03T06:56:41.634Z,15.50
2018-03-03T06:59:09.282Z,15.48
2018-03-03T07:01:36.726Z,18.77
2018-03-03T07:04:04.189Z,20.77
2018-03-03T07:06:31.629Z,17.50
2018-03-03T07:08:59.062Z,12.80
2018-03-03T07:11:26.600Z,17.25
2018-03-03T07:13:54.004Z,18.50
2018-03-03T07:16:21.441Z,23.58
2018-03-03T07:18:48.870Z,17.90
2018-03-03T07:21:16.455Z,22.83
2018-03-03T07:23:43.887Z,20.47
2018-03-03T07:26:11.395Z,18.37
2018-03-03T07:28:39.754Z,19.75
2018-03-03T07:31:07.186Z,19.23
2018-03-03T07:33:34.606Z,16.00
2018-03-03T07:36:02.814Z,22.37
2018-03-03T07:38:30.248Z,18.23
2018-03-03T07:40:58.442Z,13.87
2018-03-03T07:43:25.874Z,20.73
2018-03-03T07:45:53.289Z,19.90
2018-03-03T07:48:20.718Z,21.20
2018-03-03T07:50:48.179Z,16.77
2018-03-03T07:53:15.845Z,21.20
2018-03-03T07:55:43.390Z,19.77
2018-03-03T07:58:10.828Z,19.80
2018-03-03T08:00:39.030Z,21.08
2018-03-03T08:03:07.224Z,21.80
2018-03-03T08:05:34.665Z,25.70
2018-03-03T08:08:02.873Z,17.37
2018-03-03T08:10:30.295Z,27.40
2018-03-03T08:12:57.861Z,25.10
2018-03-03T08:15:25.283Z,24.27
2018-03-03T08:17:52.786Z,22.07
2018-03-03T08:20:20.216Z,20.27
2018-03-03T08:22:47.674Z,21.62
2018-03-03T08:25:15.904Z,15.00
2018-03-03T08:27:43.309Z,24.97
2018-03-03T08:30:10.767Z,23.30
2018-03-03T08:32:38.201Z,27.03
2018-03-03T08:35:05.650Z,18.00
2018-03-03T08:37:33.072Z,21.83
2018-03-03T08:40:00.498Z,20.67
2018-03-03T08:42:27.953Z,24.15
2018-03-03T08:44:55.386Z,21.13
2018-03-03T08:47:22.798Z,21.10
2018-03-03T08:49:50.251Z,24.23
2018-03-03T08:52:17.712Z,24.37
2018-03-03T08:54:46.104Z,13.47
2018-03-03T08:57:13.540Z,25.33
2018-03-03T08:59:42.166Z,16.17
2018-03-03T09:02:11.347Z,28.63
2018-03-03T09:04:38.776Z,21.00
2018-03-03T09:07:06.211Z,29.50
2018-03-03T09:09:34.403Z,19.70
2018-03-03T09:12:02.586Z,26.00
2018-03-03T09:14:30.788Z,21.87
2018-03-03T09:16:58.265Z,21.13
2018-03-03T09:19:25.700Z,25.55
2018-03-03T09:21:53.202Z,27.57
2018-03-03T09:24:20.633Z,20.58
2018-03-03T09:26:48.062Z,23.33
2018-03-03T09:29:15.614Z,21.37
2018-03-03T09:31:43.060Z,18.40
2018-03-03T09:34:10.490Z,25.90
2018-03-03T09:36:37.957Z,26.42
2018-03-03T09:39:05.409Z,17.67
2018-03-03T09:41:32.857Z,24.40
2018-03-03T09:44:00.315Z,22.50
2018-03-03T09:46:27.740Z,21.47
2018-03-03T09:48:55.161Z,28.05
2018-03-03T09:51:22.742Z,32.23
2018-03-03T09:53:50.203Z,19.85
2018-03-03T09:56:17.656Z,24.07
2018-03-03T09:58:45.113Z,36.60
2018-03-03T10:01:13.383Z,28.80
2018-03-03T10:03:40.801Z,31.60
2018-03-03T10:06:08.237Z,29.20
2018-03-03T10:08:35.794Z,35.00
2018-03-03T10:11:04.010Z,36.40
2018-03-03T10:13:31.501Z,38.80
2018-03-03T10:15:58.926Z,38.93
2018-03-03T10:18:26.431Z,28.57
2018-03-03T10:20:54.040Z,35.80
2018-03-03T10:23:26.536Z,31.53
2018-03-03T10:25:53.978Z,20.67
2018-03-03T10:28:21.555Z,31.33
2018-03-03T10:30:49.000Z,25.33
2018-03-03T10:33:17.198Z,18.50
2018-03-03T10:35:44.619Z,28.63
2018-03-03T10:38:12.999Z,27.43
2018-03-03T10:40:41.423Z,35.60
2018-03-03T10:43:09.661Z,18.07
2018-03-03T10:45:37.109Z,19.63
2018-03-03T10:48:04.582Z,32.97
2018-03-03T10:50:32.556Z,24.90
2018-03-03T10:52:59.993Z,24.17
2018-03-03T10:55:28.199Z,35.20
2018-03-03T10:57:56.392Z,24.67
2018-03-03T11:00:27.557Z,18.97
2018-03-03T11:02:55.037Z,30.97
2018-03-03T11:05:22.502Z,24.15
2018-03-03T11:07:50.730Z,26.70
2018-03-03T11:10:18.160Z,28.07
2018-03-03T11:12:45.621Z,28.00
2018-03-03T11:15:14.526Z,32.85
2018-03-03T11:17:41.952Z,26.03
2018-03-03T11:20:09.366Z,25.43
2018-03-03T11:22:36.801Z,28.65
2018-03-03T11:25:04.989Z,38.23
2018-03-03T11:27:33.184Z,25.10
2018-03-03T11:30:01.382Z,30.13
2018-03-03T11:32:28.842Z,23.10
2018-03-03T11:34:56.297Z,32.67
2018-03-03T11:37:23.698Z,26.37
2018-03-03T11:39:51.205Z,33.60
2018-03-03T11:42:18.682Z,31.80
2018-03-03T11:44:46.149Z,25.90
2018-03-03T11:47:15.116Z,30.65
2018-03-03T11:49:42.536Z,25.90
2018-03-03T11:52:10.934Z,32.17
2018-03-03T11:54:39.122Z,31.48
2018-03-03T11:57:07.307Z,31.95
2018-03-03T11:59:35.507Z,24.00
2018-03-03T12:02:02.985Z,25.83
2018-03-03T12:04:31.187Z,29.40
2018-03-03T12:06:58.622Z,32.78
2018-03-03T12:09:26.819Z,32.93
2018-03-03T12:11:54.283Z,27.37
2018-03-03T12:14:22.453Z,34.35
2018-03-03T12:16:50.675Z,40.67
2018-03-03T12:19:18.098Z,33.33
2018-03-03T12:21:45.545Z,35.93
2018-03-03T12:24:12.958Z,28.83
2018-03-03T12:26:41.162Z,34.20
2018-03-03T12:29:08.558Z,34.30
2018-03-03T12:31:35.994Z,37.22
2018-03-03T12:34:03.411Z,35.07
2018-03-03T12:36:30.846Z,46.53
2018-03-03T12:38:58.261Z,41.57
2018-03-03T12:41:25.705Z,38.30
2018-03-03T12:43:53.142Z,37.23
2018-03-03T12:46:20.555Z,29.60
2018-03-03T12:48:47.991Z,31.47
2018-03-03T12:51:15.443Z,24.30
2018-03-03T12:53:43.657Z,21.50
2018-03-03T12:56:11.082Z,40.57
2018-03-03T12:58:38.523Z,35.23
2018-03-03T13:01:05.930Z,37.10
2018-03-03T13:03:33.390Z,35.37
2018-03-03T13:06:01.626Z,35.07
2018-03-03T13:08:29.054Z,29.20
2018-03-03T13:10:56.562Z,35.90
2018-03-03T13:13:23.961Z,34.73
2018-03-03T13:15:52.145Z,39.90
2018-03-03T13:18:20.342Z,38.70
2018-03-03T13:20:48.567Z,38.97
2018-03-03T13:23:16.057Z,30.47
2018-03-03T13:25:44.208Z,42.17
2018-03-03T13:28:11.678Z,27.00
2018-03-03T13:30:39.098Z,30.07
2018-03-03T13:33:07.278Z,35.83
2018-03-03T13:35:34.722Z,37.23
2018-03-03T13:38:02.151Z,30.90
2018-03-03T13:40:30.357Z,33.83
2018-03-03T13:42:57.988Z,34.50
2018-03-03T13:45:25.407Z,32.47
2018-03-03T13:47:53.738Z,38.37
2018-03-03T13:50:21.167Z,35.07
2018-03-03T13:52:48.746Z,27.20
2018-03-03T13:55:17.246Z,37.70
2018-03-03T13:57:44.753Z,36.33
2018-03-03T14:00:12.974Z,36.50
2018-03-03T14:02:41.362Z,26.87
2018-03-03T14:05:08.798Z,34.60
2018-03-03T14:07:37.035Z,38.00
2018-03-03T14:10:04.494Z,29.13
2018-03-03T14:12:31.955Z,37.07
2018-03-03T14:15:00.133Z,33.50
2018-03-03T14:17:28.386Z,30.27
2018-03-03T14:19:55.785Z,34.50
2018-03-03T14:22:23.967Z,30.67
2018-03-03T14:24:52.342Z,34.60
2018-03-03T14:27:20.558Z,34.63
2018-03-03T14:29:47.997Z,29.83
2018-03-03T14:32:17.150Z,28.73
2018-03-03T14:34:44.629Z,29.97
2018-03-03T14:37:12.058Z,23.90
2018-03-03T14:39:40.230Z,27.20
2018-03-03T14:42:08.430Z,21.80
2018-03-03T14:44:36.608Z,36.03
2018-03-03T14:47:04.030Z,26.20
2018-03-03T14:49:31.484Z,33.53
2018-03-03T14:51:58.906Z,32.58
2018-03-03T14:54:27.100Z,29.20
2018-03-03T14:56:55.301Z,33.25
2018-03-03T14:59:23.507Z,27.47
2018-03-03T15:01:50.908Z,21.07
2018-03-03T15:04:18.335Z,30.60
2018-03-03T15:06:45.768Z,24.55
2018-03-03T15:09:13.190Z,25.73
2018-03-03T15:11:40.634Z,27.23
2018-03-03T15:14:08.053Z,25.77
2018-03-03T15:16:35.693Z,29.90
2018-03-03T15:19:03.111Z,30.40
2018-03-03T15:21:30.538Z,29.27
2018-03-03T15:23:57.989Z,24.07
2018-03-03T15:26:26.302Z,22.80
2018-03-03T15:28:53.753Z,31.17
2018-03-03T15:31:21.209Z,29.80
2018-03-03T15:33:48.708Z,24.43
2018-03-03T15:36:16.173Z,27.13
2018-03-03T15:38:43.587Z,29.67
2018-03-03T15:41:11.011Z,20.50
2018-03-03T15:43:38.462Z,30.37
2018-03-03T15:46:05.903Z,22.43
2018-03-03T15:48:33.310Z,23.80
2018-03-03T15:51:00.866Z,21.47
2018-03-03T15:53:29.054Z,18.13
2018-03-03T15:55:56.461Z,20.23
2018-03-03T15:58:24.008Z,23.37
2018-03-03T16:00:51.433Z,26.63
2018-03-03T16:03:19.737Z,18.20
2018-03-03T16:05:48.840Z,23.40
2018-03-03T16:08:16.279Z,15.17
2018-03-03T16:10:43.794Z,21.00
2018-03-03T16:13:11.223Z,18.20
2018-03-03T16:15:38.742Z,20.70
2018-03-03T16:18:06.174Z,23.00
2018-03-03T16:20:34.377Z,20.60
2018-03-03T16:23:02.572Z,16.20
2018-03-03T16:25:29.994Z,18.07
2018-03-03T16:27:57.429Z,15.93
2018-03-03T16:30:24.880Z,22.40
2018-03-03T16:32:52.333Z,22.00
2018-03-03T16:35:19.832Z,18.13
2018-03-03T16:37:47.282Z,15.40
2018-03-03T16:40:14.709Z,16.40
2018-03-03T16:42:42.179Z,18.07
2018-03-03T16:45:09.695Z,21.02
2018-03-03T16:47:37.130Z,17.77
2018-03-03T16:50:05.340Z,14.80
2018-03-03T16:52:32.781Z,16.23
2018-03-03T16:55:00.984Z,17.80
2018-03-03T16:57:29.190Z,17.80
2018-03-03T16:59:56.620Z,22.10
2018-03-03T17:02:24.046Z,19.90
2018-03-03T17:04:51.470Z,16.93
2018-03-03T17:07:20.616Z,12.13
2018-03-03T17:09:48.106Z,17.98
2018-03-03T17:12:15.575Z,12.90
2018-03-03T17:14:43.003Z,21.60
2018-03-03T17:17:10.450Z,12.70
2018-03-03T17:19:38.635Z,14.43
2018-03-03T17:22:06.817Z,10.30
2018-03-03T17:24:35.027Z,18.30
2018-03-03T17:27:02.452Z,18.30
2018-03-03T17:29:29.866Z,18.93
2018-03-03T17:31:57.297Z,16.47
2018-03-03T17:34:25.510Z,19.53
2018-03-03T17:36:53.745Z,19.03
2018-03-03T17:39:21.170Z,18.37
2018-03-03T17:41:48.611Z,11.70
2018-03-03T17:44:16.074Z,17.83
2018-03-03T17:46:43.509Z,15.70
2018-03-03T17:49:10.929Z,16.87
2018-03-03T17:51:39.154Z,21.50
2018-03-03T17:54:06.631Z,19.10
2018-03-03T17:56:34.060Z,17.07
2018-03-03T17:59:02.315Z,17.70
2018-03-03T18:01:29.801Z,15.43
2018-03-03T18:03:58.038Z,11.90
2018-03-03T18:06:25.453Z,14.73
2018-03-03T18:08:53.874Z,13.50
2018-03-03T18:11:21.352Z,18.07
2018-03-03T18:13:55.310Z,16.83
2018-03-03T18:16:22.740Z,16.53
2018-03-03T18:18:51.161Z,16.00
2018-03-03T18:21:18.608Z,15.37
2018-03-03T18:23:46.040Z,16.00
2018-03-03T18:26:13.452Z,14.00
2018-03-03T18:28:40.930Z,13.90
2018-03-03T18:31:08.375Z,19.13
2018-03-03T18:33:35.779Z,17.27
2018-03-03T18:36:03.232Z,13.90
2018-03-03T18:38:30.666Z,15.10
2018-03-03T18:40:58.116Z,15.00
2018-03-03T18:43:26.446Z,12.57
2018-03-03T18:45:53.867Z,16.57
2018-03-03T18:48:22.711Z,18.02
2018-03-03T18:50:50.217Z,17.43
2018-03-03T18:53:17.691Z,13.57
2018-03-03T18:55:45.127Z,15.60
2018-03-03T18:58:12.566Z,16.50
2018-03-03T19:00:40.779Z,15.68
2018-03-03T19:03:08.210Z,13.47
2018-03-03T19:05:36.394Z,12.80
2018-03-03T19:08:04.609Z,13.67
2018-03-03T19:10:32.892Z,13.40
2018-03-03T19:13:00.317Z,14.60
2018-03-03T19:15:27.739Z,17.13
2018-03-03T19:17:55.167Z,18.77
2018-03-03T19:20:23.498Z,14.40
2018-03-03T19:22:50.944Z,15.90
2018-03-03T19:25:19.144Z,15.07
2018-03-03T19:27:46.656Z,19.52
2018-03-03T19:30:14.064Z,17.53
2018-03-03T19:32:42.237Z,10.60
2018-03-03T19:35:10.432Z,12.93
2018-03-03T19:37:38.657Z,13.30
2018-03-03T19:40:06.089Z,15.23
2018-03-03T19:42:34.274Z,16.90
2018-03-03T19:45:02.467Z,11.60
2018-03-03T19:47:29.908Z,14.77
2018-03-03T19:49:58.823Z,13.40
2018-03-03T19:52:27.047Z,13.87
2018-03-03T19:54:54.471Z,16.50
2018-03-03T19:57:23.852Z,17.20
2018-03-03T19:59:51.311Z,13.70
2018-03-03T20:02:18.774Z,14.67
2018-03-03T20:04:46.202Z,16.10
2018-03-03T20:07:13.638Z,15.43
2018-03-03T20:09:41.076Z,17.33
2018-03-03T20:12:08.512Z,17.30
2018-03-03T20:14:36.706Z,15.50
2018-03-03T20:17:04.286Z,15.40
2018-03-03T20:19:31.688Z,11.03
2018-03-03T20:21:59.173Z,17.50
2018-03-03T20:24:26.549Z,16.77
2018-03-03T20:26:54.748Z,13.47
2018-03-03T20:29:23.878Z,17.33
2018-03-03T20:31:52.079Z,17.50
2018-03-03T20:34:19.512Z,19.20
2018-03-03T20:36:47.725Z,13.07
2018-03-03T20:39:16.038Z,18.17
2018-03-03T20:41:43.463Z,16.10
2018-03-03T20:44:11.657Z,14.67
2018-03-03T20:46:39.081Z,12.13
2018-03-03T20:49:06.622Z,20.40
2018-03-03T20:51:34.055Z,16.00
2018-03-03T20:54:02.266Z,17.50
2018-03-03T20:56:29.702Z,15.80
2018-03-03T20:58:57.120Z,16.97
2018-03-03T21:01:24.548Z,13.23
2018-03-03T21:03:52.751Z,16.95
2018-03-03T21:06:20.211Z,20.60
2018-03-03T21:08:48.483Z,15.50
2018-03-03T21:11:16.551Z,15.33
2018-03-03T21:13:43.943Z,22.27
2018-03-03T21:16:12.130Z,15.77
2018-03-03T21:18:39.629Z,15.67
2018-03-03T21:21:07.050Z,16.20
2018-03-03T21:23:34.478Z,17.77
2018-03-03T21:26:01.940Z,16.20
2018-03-03T21:28:29.350Z,13.57
2018-03-03T21:30:56.855Z,19.30
2018-03-03T21:33:25.132Z,13.93
2018-03-03T21:35:53.310Z,13.70
2018-03-03T21:38:20.767Z,15.17
2018-03-03T21:40:48.264Z,21.20
2018-03-03T21:43:15.688Z,17.90
2018-03-03T21:45:43.134Z,18.73
2018-03-03T21:48:10.575Z,19.87
2018-03-03T21:50:37.980Z,16.70
2018-03-03T21:53:05.409Z,20.63
2018-03-03T21:55:32.853Z,18.65
2018-03-03T21:58:01.046Z,16.87
2018-03-03T22:00:28.487Z,17.17
2018-03-03T22:02:55.930Z,15.07
2018-03-03T22:05:23.393Z,14.77
2018-03-03T22:07:50.822Z,17.70
2018-03-03T22:10:19.023Z,12.57
2018-03-03T22:12:46.506Z,21.80
2018-03-03T22:15:13.936Z,16.55
2018-03-03T22:17:41.409Z,17.23
2018-03-03T22:20:09.652Z,16.13
2018-03-03T22:22:37.074Z,19.40
2018-03-03T22:25:05.258Z,18.67
2018-03-03T22:27:33.539Z,16.10
2018-03-03T22:30:00.993Z,15.33
2018-03-03T22:32:29.185Z,19.43
2018-03-03T22:34:57.388Z,17.20
2018-03-03T22:37:26.086Z,17.95
2018-03-03T22:39:55.216Z,19.27
2018-03-03T22:42:23.453Z,17.60
2018-03-03T22:44:50.910Z,18.23
2018-03-03T22:47:18.381Z,17.00
2018-03-03T22:49:45.813Z,17.43
2018-03-03T22:52:13.247Z,13.53
2018-03-03T22:54:41.453Z,19.77
2018-03-03T22:57:08.898Z,16.80
2018-03-03T22:59:36.353Z,19.53
2018-03-03T23:02:03.793Z,19.37
2018-03-03T23:04:31.249Z,19.73
2018-03-03T23:06:58.738Z,13.77
2018-03-03T23:09:26.159Z,20.00
2018-03-03T23:11:53.607Z,22.50
2018-03-03T23:14:21.814Z,19.17
2018-03-03T23:16:49.246Z,20.23
2018-03-03T23:19:16.702Z,16.37
2018-03-03T23:21:44.246Z,17.83
2018-03-03T23:24:11.694Z,22.50
2018-03-03T23:26:39.105Z,14.57
2018-03-03T23:29:06.677Z,21.47
2018-03-03T23:31:34.090Z,14.60
2018-03-03T23:34:02.270Z,19.57
2018-03-03T23:36:30.471Z,16.30
2018-03-03T23:38:57.888Z,16.83
2018-03-03T23:41:26.251Z,22.98
2018-03-03T23:43:53.778Z,21.07
2018-03-03T23:46:21.195Z,20.57
2018-03-03T23:48:48.755Z,20.00
2018-03-03T23:51:16.190Z,23.97
2018-03-03T23:53:44.413Z,19.67
2018-03-03T23:56:11.839Z,19.37
2018-03-03T23:58:39.253Z,17.87
